createdAt,value
2022-09-07T00:00:51.516Z,3.60
2022-09-07T00:01:51.496Z,3.40
2022-09-07T00:02:51.537Z,3.20
2022-09-07T00:03:51.588Z,3.20
2022-09-07T00:04:51.473Z,3.50
2022-09-07T00:05:51.454Z,3.30
2022-09-07T00:06:51.462Z,3.30
2022-09-07T00:07:51.429Z,3.50
2022-09-07T00:08:51.452Z,3.30
2022-09-07T00:09:51.425Z,3.80
2022-09-07T00:10:51.410Z,3.30
2022-09-07T00:11:51.384Z,3.40
2022-09-07T00:12:51.398Z,3.40
2022-09-07T00:13:51.411Z,3.50
2022-09-07T00:14:51.379Z,3.40
2022-09-07T00:15:51.405Z,3.10
2022-09-07T00:16:51.367Z,3.30
2022-09-07T00:17:51.336Z,3.30
2022-09-07T00:18:51.340Z,3.20
2022-09-07T00:19:51.325Z,3.00
2022-09-07T00:20:51.315Z,3.50
2022-09-07T00:21:51.285Z,3.30
2022-09-07T00:22:51.306Z,3.30
2022-09-07T00:23:51.287Z,3.10
2022-09-07T00:24:51.260Z,3.40
2022-09-07T00:25:54.123Z,3.50
2022-09-07T00:26:51.236Z,3.30
2022-09-07T00:27:51.234Z,3.30
2022-09-07T00:28:51.240Z,3.30
2022-09-07T00:29:51.203Z,3.00
2022-09-07T00:30:51.196Z,2.80
2022-09-07T00:31:51.283Z,3.20
2022-09-07T00:32:51.192Z,3.20
2022-09-07T00:33:51.191Z,3.10
2022-09-07T00:34:51.165Z,3.30
2022-09-07T00:35:51.142Z,3.20
2022-09-07T00:36:51.155Z,3.40
2022-09-07T00:37:51.130Z,3.20
2022-09-07T00:38:51.753Z,3.00
2022-09-07T00:39:51.178Z,3.40
2022-09-07T00:40:51.092Z,3.40
2022-09-07T00:41:51.091Z,3.50
2022-09-07T00:42:51.086Z,3.30
2022-09-07T00:43:51.095Z,3.90
2022-09-07T00:44:51.069Z,3.60
2022-09-07T00:45:51.038Z,3.60
2022-09-07T00:46:51.098Z,4.00
2022-09-07T00:47:51.019Z,3.70
2022-09-07T00:48:51.035Z,3.80
2022-09-07T00:49:51.006Z,3.90
2022-09-07T00:50:50.992Z,3.70
2022-09-07T00:51:50.981Z,3.60
2022-09-07T00:52:50.980Z,3.70
2022-09-07T00:53:51.000Z,4.10
2022-09-07T00:54:50.953Z,3.50
2022-09-07T00:55:50.955Z,3.80
2022-09-07T00:56:50.949Z,4.10
2022-09-07T00:57:50.917Z,4.30
2022-09-07T00:58:50.929Z,3.90
2022-09-07T00:59:50.915Z,3.70
2022-09-07T01:00:50.904Z,4.30
2022-09-07T01:01:51.056Z,3.80
2022-09-07T01:02:51.012Z,4.00
2022-09-07T01:03:50.873Z,3.60
2022-09-07T01:04:50.869Z,3.70
2022-09-07T01:05:50.835Z,3.30
2022-09-07T01:06:50.829Z,3.50
2022-09-07T01:07:50.813Z,3.50
2022-09-07T01:08:50.831Z,3.40
2022-09-07T01:09:50.796Z,3.20
2022-09-07T01:10:50.791Z,3.20
2022-09-07T01:11:50.795Z,3.10
2022-09-07T01:12:50.774Z,3.00
2022-09-07T01:13:50.772Z,3.40
2022-09-07T01:14:50.745Z,3.00
2022-09-07T01:15:50.792Z,3.30
2022-09-07T01:16:50.728Z,2.90
2022-09-07T01:17:50.712Z,3.40
2022-09-07T01:18:51.362Z,3.00
2022-09-07T01:19:50.690Z,3.10
2022-09-07T01:20:50.693Z,3.20
2022-09-07T01:21:50.679Z,3.10
2022-09-07T01:22:50.671Z,2.90
2022-09-07T01:23:50.673Z,3.00
2022-09-07T01:24:50.646Z,3.30
2022-09-07T01:25:50.631Z,3.40
2022-09-07T01:26:50.636Z,3.30
2022-09-07T01:27:50.616Z,3.20
2022-09-07T01:28:50.802Z,3.20
2022-09-07T01:29:50.588Z,3.30
2022-09-07T01:30:50.631Z,3.30
2022-09-07T01:31:50.572Z,3.30
2022-09-07T01:32:50.563Z,3.20
2022-09-07T01:33:50.573Z,3.30
2022-09-07T01:34:50.544Z,3.90
2022-09-07T01:35:50.530Z,3.00
2022-09-07T01:36:50.527Z,3.00
2022-09-07T01:37:52.930Z,3.60
2022-09-07T01:38:50.551Z,3.40
2022-09-07T01:39:50.526Z,3.30
2022-09-07T01:40:50.485Z,3.50
2022-09-07T01:41:50.466Z,3.30
2022-09-07T01:42:50.461Z,3.40
2022-09-07T01:43:50.468Z,3.10
2022-09-07T01:44:50.442Z,3.80
2022-09-07T01:45:50.432Z,3.40
2022-09-07T01:46:50.428Z,3.30
2022-09-07T18:11:46.763Z,1.50
2022-09-07T18:12:37.943Z,1.60
2022-09-07T18:13:38.692Z,1.60
2022-09-07T18:14:37.917Z,1.60
2022-09-07T18:15:38.790Z,1.50
2022-09-07T18:16:38.169Z,1.70
2022-09-07T18:17:39.210Z,1.70
2022-09-07T18:18:37.872Z,1.60
2022-09-07T18:19:38.614Z,1.70
2022-09-07T18:20:37.852Z,2.00
2022-09-07T18:21:37.926Z,1.90
2022-09-07T18:22:37.864Z,1.60
2022-09-07T18:23:37.829Z,1.70
2022-09-07T18:24:37.832Z,1.90
2022-09-07T18:25:38.013Z,1.70
2022-09-07T18:26:37.791Z,1.70
2022-09-07T18:27:37.797Z,1.80
2022-09-07T18:29:37.793Z,1.60
2022-09-07T18:30:37.754Z,1.40
2022-09-07T18:31:37.818Z,1.50
2022-09-07T18:32:37.727Z,1.80
2022-09-07T18:33:37.739Z,1.60
2022-09-07T18:34:37.733Z,1.60
2022-09-07T18:35:37.703Z,1.70
2022-09-07T18:36:37.691Z,1.90
2022-09-07T18:37:38.283Z,1.50
2022-09-07T18:38:37.674Z,1.60
2022-09-07T18:39:37.765Z,1.50
2022-09-07T18:40:38.462Z,1.50
2022-09-07T18:41:37.690Z,1.60
2022-09-07T18:42:37.625Z,1.60
2022-09-07T18:43:38.201Z,1.80
2022-09-07T18:45:37.678Z,1.60
2022-09-07T18:46:37.638Z,1.40
2022-09-07T18:47:37.578Z,1.60
2022-09-07T18:48:37.565Z,1.50
2022-09-07T18:49:37.577Z,1.70
2022-09-07T18:50:37.543Z,1.60
2022-09-07T18:52:53.558Z,1.60
2022-09-07T18:53:37.524Z,1.50
2022-09-07T18:54:37.586Z,1.70
2022-09-07T18:55:37.503Z,1.80
2022-09-07T18:56:37.484Z,1.50
2022-09-07T18:57:37.487Z,1.50
2022-09-07T18:58:37.471Z,1.90
2022-09-07T18:59:37.459Z,1.60
2022-09-07T19:00:37.653Z,1.60
2022-09-07T19:01:37.550Z,1.90
2022-09-07T19:02:37.601Z,1.50
2022-09-07T19:03:37.419Z,1.90
2022-09-07T19:05:53.210Z,1.80
2022-09-07T19:06:37.391Z,1.70
2022-09-07T19:07:37.373Z,1.90
2022-09-07T19:08:37.366Z,1.50
2022-09-07T19:09:37.374Z,1.60
2022-09-07T19:10:37.344Z,1.90
2022-09-07T19:11:37.330Z,1.70
2022-09-07T19:12:37.319Z,1.90
2022-09-07T19:13:37.312Z,1.70
2022-09-07T19:14:37.427Z,1.80
2022-09-07T19:15:37.995Z,1.80
2022-09-07T19:16:37.357Z,1.60
2022-09-07T19:17:37.269Z,1.70
2022-09-07T19:18:37.256Z,1.80
2022-09-07T19:19:37.275Z,1.90
2022-09-07T19:20:37.257Z,1.80
2022-09-07T19:21:37.235Z,1.80
2022-09-07T19:22:37.216Z,1.80
2022-09-07T19:23:37.209Z,2.00
2022-09-07T19:24:37.215Z,1.80
2022-09-07T19:25:37.193Z,2.00
2022-09-07T19:26:37.176Z,1.70
2022-09-07T19:27:37.169Z,2.20
2022-09-07T19:28:37.158Z,2.00
2022-09-07T19:29:37.182Z,1.90
2022-09-07T19:30:37.136Z,1.90
2022-09-07T19:31:37.194Z,1.80
2022-09-07T19:32:37.116Z,2.00
2022-09-07T19:33:37.118Z,1.90
2022-09-07T19:34:37.141Z,2.00
2022-09-07T19:35:37.094Z,1.80
2022-09-07T19:36:37.080Z,1.90
2022-09-07T19:37:37.074Z,2.20
2022-09-07T19:38:37.061Z,2.10
2022-09-07T19:39:37.151Z,2.10
2022-09-07T19:40:37.039Z,1.90
2022-09-07T19:41:37.024Z,2.10
2022-09-07T19:42:38.002Z,1.90
2022-09-07T19:43:37.003Z,2.00
2022-09-07T19:44:37.024Z,1.90
2022-09-07T19:45:37.004Z,1.90
2022-09-07T19:46:37.044Z,2.00
2022-09-07T19:47:36.961Z,1.90
2022-09-07T19:48:36.955Z,1.90
2022-09-07T19:49:36.971Z,1.90
2022-09-07T19:50:36.938Z,2.00
2022-09-07T19:51:36.982Z,1.90
2022-09-07T19:52:36.915Z,2.00
2022-09-07T19:53:36.899Z,1.70
2022-09-07T19:54:36.896Z,1.90
2022-09-07T19:55:36.911Z,2.00
2022-09-07T19:56:36.876Z,2.00
2022-09-07T19:57:36.874Z,2.10
2022-09-07T19:58:36.859Z,2.10
2022-09-07T19:59:36.838Z,2.10
2022-09-07T20:00:36.933Z,1.80
2022-09-07T20:01:37.664Z,1.90
2022-09-07T20:02:36.816Z,2.40
2022-09-07T20:03:37.103Z,1.90
2022-09-07T20:04:36.794Z,1.90
2022-09-07T20:05:36.799Z,2.00
2022-09-07T20:06:36.777Z,2.10
2022-09-07T20:07:36.759Z,1.80
2022-09-07T20:08:36.755Z,1.90
2022-09-07T20:09:36.742Z,1.80
2022-09-07T20:10:36.756Z,1.80
2022-09-07T20:11:36.718Z,1.90
2022-09-07T20:12:36.727Z,1.90
2022-09-07T20:13:36.706Z,2.00
2022-09-07T20:14:36.695Z,1.90
2022-09-07T20:15:36.701Z,1.90
2022-09-07T20:16:36.754Z,2.10
2022-09-07T20:17:36.680Z,1.90
2022-09-07T20:18:36.651Z,1.90
2022-09-07T20:19:36.640Z,2.00
2022-09-07T20:20:36.652Z,1.90
2022-09-07T20:21:36.624Z,2.10
2022-09-07T20:22:36.617Z,1.80
2022-09-07T20:23:36.594Z,2.00
2022-09-07T20:24:36.617Z,1.80
2022-09-07T20:25:36.572Z,2.00
2022-09-07T20:26:36.568Z,2.00
2022-09-07T20:27:36.557Z,2.20
2022-09-07T20:28:36.549Z,2.00
2022-09-07T20:29:36.565Z,2.10
2022-09-07T20:30:36.529Z,2.10
2022-09-07T20:31:36.569Z,2.10
2022-09-07T20:32:36.507Z,1.90
2022-09-07T20:33:36.501Z,2.00
2022-09-07T20:34:36.509Z,2.20
2022-09-07T20:35:36.472Z,2.10
2022-09-07T20:36:36.470Z,2.00
2022-09-07T20:37:36.451Z,2.20
2022-09-07T20:38:36.449Z,2.20
2022-09-07T20:39:39.240Z,2.10
2022-09-07T20:40:36.438Z,2.10
2022-09-07T20:41:36.416Z,2.70
2022-09-07T20:42:36.409Z,2.10
2022-09-07T20:43:36.424Z,2.20
2022-09-07T20:44:36.407Z,2.40
2022-09-07T20:45:36.375Z,2.40
2022-09-07T20:46:36.500Z,2.20
2022-09-07T20:47:36.362Z,2.30
2022-09-07T20:48:36.345Z,2.30
2022-09-07T20:49:36.362Z,2.40
2022-09-07T20:50:36.354Z,2.30
2022-09-07T20:51:36.309Z,2.50
2022-09-07T20:52:36.304Z,2.30
2022-09-07T20:53:36.287Z,2.30
2022-09-07T20:54:36.307Z,2.40
2022-09-07T20:55:36.265Z,2.30
2022-09-07T20:56:36.264Z,2.30
2022-09-07T20:57:36.274Z,2.20
2022-09-07T20:58:36.241Z,2.20
2022-09-07T20:59:36.248Z,2.30
2022-09-07T21:00:36.267Z,2.40
2022-09-07T21:01:36.254Z,2.50
2022-09-07T21:02:36.203Z,2.40
2022-09-07T21:03:36.193Z,2.60
2022-09-07T21:04:36.203Z,2.30
2022-09-07T21:05:36.170Z,2.40
2022-09-07T21:06:36.164Z,2.30
2022-09-07T21:07:36.157Z,2.30
2022-09-07T21:08:36.144Z,2.40
2022-09-07T21:09:36.148Z,2.40
2022-09-07T21:10:36.119Z,2.50
2022-09-07T21:11:36.129Z,2.50
2022-09-07T21:12:36.102Z,2.50
2022-09-07T21:13:36.090Z,2.80
2022-09-07T21:14:36.096Z,2.50
2022-09-07T21:15:36.064Z,3.40
2022-09-07T21:16:36.206Z,3.30
2022-09-07T21:17:36.044Z,3.20
2022-09-07T21:18:36.045Z,3.40
2022-09-07T21:19:36.045Z,3.70
2022-09-07T21:20:36.025Z,4.00
2022-09-07T21:21:38.682Z,3.90
2022-09-07T21:22:36.002Z,4.50
2022-09-07T21:23:35.987Z,3.30
2022-09-07T21:24:35.998Z,3.70
2022-09-07T21:25:35.964Z,3.70
2022-09-07T21:26:35.978Z,3.40
2022-09-07T21:27:38.406Z,3.50
2022-09-07T21:28:35.941Z,3.20
2022-09-07T21:29:35.943Z,3.30
2022-09-07T21:30:35.915Z,3.10
2022-09-07T21:31:35.934Z,3.80
2022-09-07T21:32:35.898Z,3.50
2022-09-07T21:33:35.880Z,3.30
2022-09-07T21:34:35.893Z,3.90
2022-09-07T21:35:35.861Z,4.10
2022-09-07T21:36:35.855Z,3.80
2022-09-07T21:37:35.840Z,4.20
2022-09-07T21:38:35.840Z,4.30
2022-09-07T21:39:35.917Z,3.60
2022-09-07T21:40:35.819Z,3.90
2022-09-07T21:41:35.797Z,4.20
2022-09-07T21:42:35.793Z,3.90
2022-09-07T21:43:35.777Z,3.50
2022-09-07T21:44:35.792Z,3.70
2022-09-07T21:45:35.755Z,4.10
2022-09-07T21:46:35.791Z,3.60
2022-09-07T21:47:35.735Z,4.00
2022-09-07T21:48:35.742Z,4.30
2022-09-07T21:49:35.740Z,4.50
2022-09-07T21:50:35.714Z,4.60
2022-09-07T21:51:35.697Z,4.70
2022-09-07T21:52:35.690Z,4.30
2022-09-07T21:53:35.676Z,4.50
2022-09-07T21:54:35.689Z,4.20
2022-09-07T21:55:35.654Z,5.00
2022-09-07T21:56:35.651Z,4.70
2022-09-07T21:57:35.636Z,4.80
2022-09-07T21:58:35.633Z,4.40
2022-09-07T21:59:35.646Z,4.50
2022-09-07T22:00:35.690Z,4.60
2022-09-07T22:01:35.619Z,5.00
2022-09-07T22:02:35.591Z,5.50
2022-09-07T22:03:35.573Z,5.10
2022-09-07T22:04:35.590Z,4.90
2022-09-07T22:05:35.557Z,5.10
2022-09-07T22:06:35.560Z,5.70
2022-09-07T22:07:35.534Z,4.90
2022-09-07T22:08:35.528Z,4.90
2022-09-07T22:09:35.536Z,4.80
2022-09-07T22:10:35.508Z,4.70
2022-09-07T22:11:35.495Z,4.30
2022-09-07T22:12:35.486Z,4.40
2022-09-07T22:13:35.472Z,4.60
2022-09-07T22:14:35.486Z,5.10
2022-09-07T22:15:35.451Z,4.60
2022-09-07T22:16:35.584Z,5.60
2022-09-07T22:17:35.441Z,5.70
2022-09-07T22:18:35.425Z,5.30
2022-09-07T22:19:35.431Z,6.20
2022-09-07T22:20:35.420Z,6.70
2022-09-07T22:21:35.405Z,8.30
2022-09-07T22:22:36.233Z,6.90
2022-09-07T22:23:35.429Z,7.90
2022-09-07T22:24:35.382Z,5.90
2022-09-07T22:25:35.350Z,6.20
2022-09-07T22:26:35.342Z,6.10
2022-09-07T22:27:35.332Z,6.60
2022-09-07T22:28:35.324Z,6.60
2022-09-07T22:29:35.330Z,7.60
2022-09-07T22:30:35.303Z,7.60
2022-09-07T22:31:35.362Z,8.10
2022-09-07T22:32:35.281Z,8.60
2022-09-07T22:33:35.270Z,8.10
2022-09-07T22:34:35.283Z,9.50
2022-09-07T22:35:35.250Z,9.20
2022-09-07T22:36:35.261Z,7.70
2022-09-07T22:37:35.226Z,8.10
2022-09-07T22:38:35.247Z,8.40
2022-09-07T22:39:35.289Z,8.20
2022-09-07T22:40:35.203Z,7.80
2022-09-07T22:41:35.183Z,7.40
2022-09-07T22:42:35.179Z,8.00
2022-09-07T22:43:35.165Z,8.30
2022-09-07T22:44:35.189Z,8.70
2022-09-07T22:45:35.146Z,8.60
2022-09-07T22:46:35.206Z,8.60
2022-09-07T22:47:35.132Z,7.80
2022-09-07T22:48:35.129Z,8.50
2022-09-07T22:49:35.122Z,8.10
2022-09-07T22:50:35.098Z,7.60
2022-09-07T22:51:35.085Z,7.60
2022-09-07T22:52:35.078Z,7.10
2022-09-07T22:53:35.151Z,7.90
2022-09-07T22:54:35.078Z,7.60
2022-09-07T22:55:35.042Z,7.60
2022-09-07T22:56:35.035Z,8.30
2022-09-07T22:57:35.024Z,8.70
2022-09-07T22:58:35.016Z,9.90
2022-09-07T22:59:35.036Z,8.20
2022-09-07T23:00:35.011Z,7.80
2022-09-07T23:01:34.980Z,8.40
2022-09-07T23:02:34.974Z,7.80
2022-09-07T23:03:35.342Z,7.00
2022-09-07T23:04:35.119Z,7.40
2022-09-07T23:05:34.939Z,7.60
2022-09-07T23:06:34.939Z,6.90
2022-09-07T23:07:34.920Z,8.30
2022-09-07T23:08:34.914Z,8.40
2022-09-07T23:09:34.914Z,7.70
2022-09-07T23:10:34.893Z,7.00
2022-09-07T23:11:34.881Z,7.30
2022-09-07T23:12:34.874Z,8.30
2022-09-07T23:13:35.045Z,8.40
2022-09-07T23:14:34.869Z,9.00
2022-09-07T23:15:34.838Z,8.30
2022-09-07T23:16:34.952Z,8.50
2022-09-07T23:17:34.822Z,7.70
2022-09-07T23:18:34.805Z,9.20
2022-09-07T23:19:34.812Z,8.70
2022-09-07T23:20:34.785Z,8.90
2022-09-07T23:21:34.771Z,8.70
2022-09-07T23:22:34.764Z,8.30
2022-09-07T23:23:34.976Z,7.40
2022-09-07T23:24:34.773Z,7.00
2022-09-07T23:25:34.728Z,6.60
2022-09-07T23:26:34.726Z,8.10
2022-09-07T23:27:34.711Z,7.40
2022-09-07T23:28:34.720Z,7.90
2022-09-07T23:29:34.711Z,8.00
2022-09-07T23:30:34.688Z,8.20
2022-09-07T23:31:34.760Z,7.20
2022-09-07T23:32:34.666Z,7.90
2022-09-07T23:33:34.853Z,8.10
2022-09-07T23:34:34.666Z,7.60
2022-09-07T23:35:34.634Z,7.90
2022-09-07T23:36:34.626Z,8.00
2022-09-07T23:37:34.610Z,7.50
2022-09-07T23:38:34.604Z,8.30
2022-09-07T23:39:34.676Z,7.30
2022-09-07T23:40:34.585Z,6.80
2022-09-07T23:41:34.571Z,7.20
2022-09-07T23:42:34.565Z,7.20
2022-09-07T23:43:34.666Z,6.70
2022-09-07T23:44:34.569Z,6.70
2022-09-07T23:45:34.527Z,6.40
2022-09-07T23:46:34.658Z,6.90
2022-09-07T23:47:34.512Z,6.60
2022-09-07T23:48:34.497Z,7.50
2022-09-07T23:49:34.515Z,6.70
2022-09-07T23:50:34.476Z,6.70
2022-09-07T23:51:34.473Z,6.80
2022-09-07T23:52:34.455Z,6.60
2022-09-07T23:53:34.628Z,6.60
2022-09-07T23:54:34.458Z,7.30
2022-09-07T23:55:34.435Z,6.60
2022-09-07T23:56:34.422Z,6.90
2022-09-07T23:57:34.410Z,6.60
2022-09-07T23:58:34.402Z,6.90
2022-09-07T23:59:34.410Z,6.70
